Time;durP1;ratioP1;P1;durP2;ratioP2;P2;SDS_P1;SDS_P2;PMS_P1;PMS_P2;Temp;Humidity;BMP_temperature;BMP_pressure;BME280_temperature;BME280_humidity;BME280_pressure;Samples;Min_cycle;Max_cycle;Signal;HPM_P1;HPM_P2
2020/12/14 00:00:16;;;;;;;14.40;10.65;;;;;;;3.46;72.46;100633.37;1706392;82;21189;-43
2020/12/14 00:02:44;;;;;;;10.90;8.60;;;;;;;3.46;72.47;100636.47;1710981;82;21165;-46
2020/12/14 00:05:12;;;;;;;11.68;8.70;;;;;;;3.45;72.46;100629.45;1711726;82;21146;-45
2020/12/14 00:07:39;;;;;;;11.08;9.18;;;;;;;3.45;72.45;100630.77;1718879;82;21536;-44
2020/12/14 00:10:06;;;;;;;12.93;9.05;;;;;;;3.44;72.47;100629.91;1711785;82;21117;-43
2020/12/14 00:12:34;;;;;;;10.93;8.50;;;;;;;3.45;72.44;100640.88;1712258;82;21168;-44
2020/12/14 00:15:04;;;;;;;13.45;8.90;;;;;;;3.42;72.46;100638.77;1719235;82;21145;-44
2020/12/14 00:17:33;;;;;;;12.20;8.70;;;;;;;3.41;72.51;100639.22;1715044;82;21165;-42
2020/12/14 00:20:01;;;;;;;10.95;8.65;;;;;;;3.41;72.53;100636.58;1710889;82;21145;-42
2020/12/14 00:22:31;;;;;;;13.20;10.08;;;;;;;3.43;72.50;100637.41;1712843;82;21169;-46
2020/12/14 00:24:59;;;;;;;11.45;8.88;;;;;;;3.44;72.53;100636.95;1717224;82;21146;-46
2020/12/14 00:27:28;;;;;;;11.10;8.68;;;;;;;3.45;72.44;100637.36;1713958;82;21158;-46
2020/12/14 00:29:56;;;;;;;13.55;9.78;;;;;;;3.46;72.45;100637.78;1715817;82;21129;-45
2020/12/14 00:32:24;;;;;;;12.53;8.85;;;;;;;3.48;72.43;100637.30;1709386;82;21161;-45
2020/12/14 00:34:52;;;;;;;12.40;8.90;;;;;;;3.46;72.42;100639.10;1709795;82;21154;-46
2020/12/14 00:37:20;;;;;;;14.90;9.33;;;;;;;3.45;72.46;100639.56;1677618;84;21177;-44
2020/12/14 00:39:48;;;;;;;11.70;9.63;;;;;;;3.44;72.47;100640.45;1677427;84;21595;-45
2020/12/14 00:42:16;;;;;;;14.43;8.95;;;;;;;3.44;72.46;100645.72;1711624;82;21157;-43
2020/12/14 00:44:43;;;;;;;13.00;9.38;;;;;;;3.43;72.48;100645.78;1710752;82;21117;-46
2020/12/14 00:47:11;;;;;;;13.00;8.85;;;;;;;3.43;72.53;100647.10;1709917;82;21158;-44
2020/12/14 00:49:38;;;;;;;13.85;9.40;;;;;;;3.43;72.54;100644.00;1713850;82;21157;-46
2020/12/14 00:52:06;;;;;;;12.88;9.75;;;;;;;3.44;72.53;100640.91;1709590;82;21621;-43
2020/12/14 00:54:33;;;;;;;14.50;9.38;;;;;;;3.41;72.52;100641.86;1697687;82;21178;-46
2020/12/14 00:57:01;;;;;;;10.68;9.35;;;;;;;3.43;72.58;100643.15;1699393;82;21180;-45
2020/12/14 00:59:28;;;;;;;12.20;8.98;;;;;;;3.44;72.56;100644.86;1703522;82;21154;-44
2020/12/14 01:01:56;;;;;;;12.50;9.05;;;;;;;3.43;72.53;100636.55;1701135;82;22077;-44
2020/12/14 01:04:24;;;;;;;10.60;8.18;;;;;;;3.44;72.53;100641.77;1699971;82;21638;-45
2020/12/14 01:06:52;;;;;;;12.85;9.33;;;;;;;3.44;72.51;100635.64;1705483;82;21597;-45
2020/12/14 01:09:20;;;;;;;11.63;8.25;;;;;;;3.44;72.52;100636.50;1666829;84;21185;-46
2020/12/14 01:11:48;;;;;;;12.28;8.68;;;;;;;3.44;72.48;100639.59;1639679;85;21180;-45
2020/12/14 01:14:15;;;;;;;14.68;10.63;;;;;;;3.43;72.50;100638.73;1643083;85;21157;-43
2020/12/14 01:16:42;;;;;;;10.90;8.43;;;;;;;3.42;72.50;100637.44;1695637;82;21885;-45
2020/12/14 01:19:11;;;;;;;14.85;9.20;;;;;;;3.43;72.55;100639.19;1655635;84;21297;-45
2020/12/14 01:21:38;;;;;;;12.95;8.38;;;;;;;3.43;72.52;100636.09;1670874;84;21167;-45
2020/12/14 01:24:06;;;;;;;11.88;8.68;;;;;;;3.43;72.51;100641.83;1700774;82;21154;-45
2020/12/14 01:26:33;;;;;;;11.78;7.83;;;;;;;3.40;72.54;100644.52;1697027;82;21115;-46
2020/12/14 01:29:01;;;;;;;13.22;8.28;;;;;;;3.39;72.58;100640.17;1698231;82;22163;-45
2020/12/14 01:31:28;;;;;;;12.82;9.88;;;;;;;3.40;72.59;100639.25;1699305;82;21150;-44
2020/12/14 01:33:56;;;;;;;14.10;8.58;;;;;;;3.40;72.55;100641.89;1705274;82;21167;-44
2020/12/14 01:36:23;;;;;;;15.90;9.13;;;;;;;3.36;72.66;100642.43;1691889;82;21137;-45
2020/12/14 01:38:51;;;;;;;13.40;8.75;;;;;;;3.38;72.64;100639.77;1697705;82;21140;-42
2020/12/14 01:41:19;;;;;;;13.15;9.85;;;;;;;3.39;72.65;100639.70;1699596;82;21156;-47
2020/12/14 01:43:46;;;;;;;13.65;8.50;;;;;;;3.38;72.67;100644.58;1639549;85;21166;-46
2020/12/14 01:46:14;;;;;;;14.28;9.45;;;;;;;3.41;72.65;100635.73;1700647;82;21186;-45
2020/12/14 01:48:41;;;;;;;10.70;8.53;;;;;;;3.41;72.64;100641.00;1652505;83;21157;-45
2020/12/14 01:51:09;;;;;;;13.98;8.53;;;;;;;3.42;72.62;100629.53;1701078;82;21578;-45
2020/12/14 01:53:36;;;;;;;10.90;7.95;;;;;;;3.43;72.55;100637.88;1662863;84;21164;-47
2020/12/14 01:56:04;;;;;;;14.05;9.40;;;;;;;3.43;72.53;100627.33;1656293;85;21224;-43
2020/12/14 01:58:32;;;;;;;11.75;8.88;;;;;;;3.42;72.54;100624.26;1650938;85;21151;-45
2020/12/14 02:00:59;;;;;;;14.93;9.40;;;;;;;3.41;72.54;100623.86;1650988;85;21199;-44
2020/12/14 02:03:27;;;;;;;10.75;8.73;;;;;;;3.41;72.55;100631.77;1654378;85;21184;-47
2020/12/14 02:05:55;;;;;;;15.58;9.50;;;;;;;3.41;72.52;100630.45;1663690;84;21204;-47
2020/12/14 02:08:22;;;;;;;12.85;8.83;;;;;;;3.40;72.54;100628.27;1669234;84;21168;-45
2020/12/14 02:10:52;;;;;;;13.05;9.28;;;;;;;3.38;72.59;100626.13;1664069;84;21166;-44
2020/12/14 02:13:19;;;;;;;14.13;9.80;;;;;;;3.38;72.56;100634.50;1653068;85;21616;-47
2020/12/14 02:15:47;;;;;;;13.75;8.95;;;;;;;3.38;72.54;100635.81;1667805;84;21192;-47
2020/12/14 02:18:14;;;;;;;16.12;10.85;;;;;;;3.40;72.54;100632.23;1666611;84;21160;-47
2020/12/14 02:20:42;;;;;;;15.98;9.83;;;;;;;3.40;72.54;100636.61;1669488;84;21205;-47
2020/12/14 02:23:09;;;;;;;10.48;8.68;;;;;;;3.39;72.50;100625.20;1666133;84;21590;-46
2020/12/14 02:25:36;;;;;;;15.00;9.35;;;;;;;3.39;72.48;100633.58;1666548;84;21684;-46
2020/12/14 02:28:04;;;;;;;12.73;8.75;;;;;;;3.39;72.46;100632.26;1665910;84;21168;-46
2020/12/14 02:30:32;;;;;;;12.05;8.30;;;;;;;3.40;72.44;100630.91;1665807;84;21171;-46
2020/12/14 02:33:00;;;;;;;15.43;10.43;;;;;;;3.40;72.42;100627.38;1658924;84;21167;-43
2020/12/14 02:35:27;;;;;;;13.15;9.53;;;;;;;3.39;72.41;100626.52;1661389;84;21502;-43
2020/12/14 02:37:56;;;;;;;13.78;10.75;;;;;;;3.39;72.44;100628.30;1660193;84;21649;-43
2020/12/14 02:40:23;;;;;;;15.88;9.98;;;;;;;3.37;72.47;100628.79;1668983;85;21175;-44
2020/12/14 02:42:51;;;;;;;14.38;10.15;;;;;;;3.37;72.48;100632.28;1663110;84;21189;-43
2020/12/14 02:45:18;;;;;;;15.25;10.08;;;;;;;3.39;72.45;100630.94;1666837;84;21584;-45
2020/12/14 02:47:46;;;;;;;17.80;11.65;;;;;;;3.39;72.45;100630.94;1663617;84;21190;-44
2020/12/14 02:50:13;;;;;;;12.10;9.35;;;;;;;3.40;72.42;100632.66;1669163;84;21186;-44
2020/12/14 02:52:41;;;;;;;17.50;11.15;;;;;;;3.36;72.41;100629.71;1662290;84;21176;-44
2020/12/14 02:55:09;;;;;;;14.55;9.75;;;;;;;3.36;72.42;100633.66;1665036;84;21612;-43
2020/12/14 02:57:36;;;;;;;14.80;10.80;;;;;;;3.36;72.44;100633.66;1645768;85;21187;-43
2020/12/14 03:00:05;;;;;;;16.40;10.75;;;;;;;3.34;72.48;100627.10;1636460;85;21193;-44
2020/12/14 03:02:32;;;;;;;13.40;10.65;;;;;;;3.35;72.45;100631.48;1645818;85;21152;-43
2020/12/14 03:04:59;;;;;;;15.85;11.48;;;;;;;3.35;72.42;100630.17;1702810;82;21177;-43
2020/12/14 03:07:27;;;;;;;13.80;9.88;;;;;;;3.35;72.45;100630.17;1701635;81;21597;-45
2020/12/14 03:09:54;;;;;;;15.15;11.05;;;;;;;3.37;72.43;100626.16;1702061;82;21162;-46
2020/12/14 03:12:22;;;;;;;14.18;10.35;;;;;;;3.38;72.35;100631.86;1699091;82;21158;-45
2020/12/14 03:14:51;;;;;;;14.50;9.75;;;;;;;3.37;72.34;100628.33;1704048;82;21165;-44
2020/12/14 03:17:19;;;;;;;16.45;11.75;;;;;;;3.37;72.33;100632.28;1701109;82;21575;-45
2020/12/14 03:19:46;;;;;;;16.40;10.35;;;;;;;3.37;72.34;100632.75;1701058;82;21154;-47
2020/12/14 03:22:13;;;;;;;16.60;11.78;;;;;;;3.37;72.29;100632.75;1694818;82;21154;-48
2020/12/14 03:24:41;;;;;;;16.12;11.57;;;;;;;3.34;72.33;100629.73;1696380;82;21609;-47
2020/12/14 03:27:08;;;;;;;16.40;11.78;;;;;;;3.33;72.33;100629.34;1701298;82;21162;-48
2020/12/14 03:29:36;;;;;;;14.83;11.28;;;;;;;3.33;72.35;100632.43;1705819;82;21145;-48
2020/12/14 03:32:04;;;;;;;16.87;12.60;;;;;;;3.32;72.35;100628.91;1702604;82;21189;-47
2020/12/14 03:34:31;;;;;;;16.37;12.30;;;;;;;3.32;72.37;100634.17;1699716;82;21701;-47
2020/12/14 03:36:59;;;;;;;16.30;10.70;;;;;;;3.33;72.38;100638.56;1700129;82;21673;-44
2020/12/14 03:39:26;;;;;;;16.15;10.98;;;;;;;3.34;72.39;100640.74;1698282;82;21166;-44
2020/12/14 03:41:54;;;;;;;15.05;11.53;;;;;;;3.36;72.36;100638.94;1698376;82;21194;-43
2020/12/14 03:44:21;;;;;;;14.87;10.58;;;;;;;3.35;72.31;100640.71;1706869;82;21158;-43
2020/12/14 03:46:50;;;;;;;14.20;10.75;;;;;;;3.37;72.28;100645.92;1703770;82;21161;-44
2020/12/14 03:49:18;;;;;;;14.83;10.35;;;;;;;3.36;72.26;100647.70;1713612;82;21147;-43
2020/12/14 03:51:45;;;;;;;15.48;11.10;;;;;;;3.36;72.27;100649.48;1706648;82;21177;-44
2020/12/14 03:54:13;;;;;;;13.30;10.23;;;;;;;3.35;72.25;100643.78;1705290;82;21308;-44
2020/12/14 03:56:40;;;;;;;16.90;11.63;;;;;;;3.33;72.29;100646.94;1699521;82;21157;-50
2020/12/14 03:59:08;;;;;;;13.90;10.88;;;;;;;3.31;72.29;100647.42;1706333;82;21514;-46
2020/12/14 04:01:35;;;;;;;14.87;10.95;;;;;;;3.33;72.31;100650.89;1718448;82;21138;-45
2020/12/14 04:04:03;;;;;;;14.70;10.93;;;;;;;3.32;72.31;100653.09;1713075;82;21661;-45
2020/12/14 04:06:30;;;;;;;12.40;10.43;;;;;;;3.33;72.30;100646.94;1710541;82;21141;-45
2020/12/14 04:08:58;;;;;;;13.35;10.00;;;;;;;3.33;72.26;100649.11;1707025;82;21151;-46
2020/12/14 04:11:26;;;;;;;13.88;10.78;;;;;;;3.33;72.24;100649.11;1702284;82;21167;-43
2020/12/14 04:13:54;;;;;;;14.00;11.00;;;;;;;3.31;72.26;100641.69;1709170;82;21163;-44
2020/12/14 04:16:21;;;;;;;14.03;10.18;;;;;;;3.28;72.31;100647.05;1712812;82;21590;-44
2020/12/14 04:18:49;;;;;;;13.45;9.40;;;;;;;3.27;72.33;100646.61;1709858;82;21177;-48
2020/12/14 04:21:17;;;;;;;13.20;10.43;;;;;;;3.27;72.35;100647.07;1715570;82;21160;-45
2020/12/14 04:23:44;;;;;;;15.08;10.72;;;;;;;3.28;72.34;100643.55;1707818;82;21173;-45
2020/12/14 04:26:14;;;;;;;13.70;10.60;;;;;;;3.29;72.37;100648.77;1717706;82;21169;-43
2020/12/14 04:28:42;;;;;;;15.10;11.15;;;;;;;3.29;72.36;100646.59;1711889;82;21124;-46
2020/12/14 04:31:09;;;;;;;12.50;9.83;;;;;;;3.30;72.32;100650.94;1710370;82;21185;-44
2020/12/14 04:33:38;;;;;;;11.97;9.20;;;;;;;3.28;72.37;100649.69;1706540;82;21170;-44
2020/12/14 04:36:06;;;;;;;12.75;9.60;;;;;;;3.29;72.38;100650.54;1715249;82;21177;-44
2020/12/14 04:38:34;;;;;;;14.35;10.40;;;;;;;3.28;72.41;100652.32;1712523;82;21203;-44
2020/12/14 04:41:03;;;;;;;14.30;9.65;;;;;;;3.31;72.35;100654.01;1710608;82;21162;-43
2020/12/14 04:43:31;;;;;;;12.25;10.10;;;;;;;3.30;72.31;100657.11;1714331;82;21181;-41
2020/12/14 04:46:00;;;;;;;14.55;10.10;;;;;;;3.34;72.30;100660.52;1708331;82;21153;-47
2020/12/14 04:48:27;;;;;;;13.95;10.30;;;;;;;3.33;72.31;100662.75;1717656;82;21554;-43
2020/12/14 04:50:55;;;;;;;14.25;10.70;;;;;;;3.32;72.37;100664.49;1709741;82;21701;-44
2020/12/14 04:53:22;;;;;;;14.35;11.70;;;;;;;3.32;72.33;100671.09;1717246;82;21243;-43
2020/12/14 04:55:50;;;;;;;17.35;12.23;;;;;;;3.33;72.31;100679.89;1711122;82;21179;-46
2020/12/14 04:58:17;;;;;;;14.63;11.48;;;;;;;3.33;72.27;100678.56;1704810;82;21614;-44
2020/12/14 05:00:44;;;;;;;15.13;11.65;;;;;;;3.32;72.26;100677.67;1699137;82;21474;-46
2020/12/14 05:03:12;;;;;;;13.98;10.53;;;;;;;3.32;72.25;100685.58;1696003;82;21175;-46
2020/12/14 05:05:41;;;;;;;13.68;11.18;;;;;;;3.32;72.22;100693.49;1704247;82;21645;-46
2020/12/14 05:08:09;;;;;;;14.93;10.55;;;;;;;3.33;72.21;100691.75;1699734;82;21155;-46
2020/12/14 05:10:40;;;;;;;14.40;10.48;;;;;;;3.32;72.21;100690.86;1708042;82;21154;-47
2020/12/14 05:13:12;;;;;;;12.30;9.68;;;;;;;3.31;72.16;100689.14;1663486;84;21149;-43
2020/12/14 05:15:40;;;;;;;13.60;10.18;;;;;;;3.31;72.20;100694.87;1701467;82;21178;-45
2020/12/14 05:18:15;;;;;;;14.33;9.65;;;;;;;3.32;72.17;100697.91;1706353;82;21713;-44
2020/12/14 05:21:01;;;;;;;15.08;10.40;;;;;;;3.31;72.16;100698.36;1706543;82;21162;-45
2020/12/14 05:23:29;;;;;;;13.95;10.90;;;;;;;3.29;72.17;100700.17;1714677;82;21131;-43
2020/12/14 05:26:06;;;;;;;15.15;11.38;;;;;;;3.28;72.24;100701.09;1708292;82;21166;-43
2020/12/14 05:28:34;;;;;;;13.65;9.58;;;;;;;3.29;72.25;100707.22;1700241;82;21130;-43
2020/12/14 05:31:02;;;;;;;16.37;9.85;;;;;;;3.30;72.26;100707.62;1690164;82;21174;-42
2020/12/14 05:33:31;;;;;;;13.03;10.03;;;;;;;3.30;72.31;100716.84;1705097;82;21182;-41
2020/12/14 05:35:58;;;;;;;14.30;9.45;;;;;;;3.31;72.27;100718.59;1706588;82;21126;-43
2020/12/14 05:38:31;;;;;;;11.93;9.68;;;;;;;3.32;72.23;100715.05;1699870;83;21162;-43
2020/12/14 05:41:03;;;;;;;13.90;10.32;;;;;;;3.30;72.22;100717.73;1653532;85;21173;-43
2020/12/14 05:43:32;;;;;;;13.13;10.08;;;;;;;3.29;72.24;100713.34;1694153;82;21150;-46
2020/12/14 05:46:11;;;;;;;16.00;10.40;;;;;;;3.29;72.28;100719.08;1703904;82;21166;-43
2020/12/14 05:48:39;;;;;;;17.32;11.08;;;;;;;3.29;72.26;100719.08;1697714;82;21170;-46
2020/12/14 05:51:08;;;;;;;14.70;11.12;;;;;;;3.27;72.25;100720.88;1703823;82;21178;-47
2020/12/14 05:53:55;;;;;;;17.57;12.10;;;;;;;3.24;72.31;100729.73;1704328;82;21597;-45
2020/12/14 05:56:23;;;;;;;18.15;10.88;;;;;;;3.25;72.32;100738.04;1707608;82;21159;-45
2020/12/14 05:58:51;;;;;;;15.23;11.28;;;;;;;3.26;72.33;100739.79;1692861;82;21348;-41
2020/12/14 06:01:19;;;;;;;15.23;11.20;;;;;;;3.27;72.34;100731.42;1647243;83;21284;-42
2020/12/14 06:03:47;;;;;;;15.28;10.18;;;;;;;3.31;72.35;100737.05;1686193;83;21516;-42
2020/12/14 06:06:14;;;;;;;15.72;11.30;;;;;;;3.31;72.33;100736.59;1695900;82;21580;-43
2020/12/14 06:09:06;;;;;;;14.55;10.40;;;;;;;3.31;72.33;100741.00;1720837;82;21145;-43
2020/12/14 06:11:35;;;;;;;14.05;10.88;;;;;;;3.31;72.33;100737.91;1713208;82;21167;-43
2020/12/14 06:14:02;;;;;;;15.28;10.68;;;;;;;3.31;72.33;100739.23;1715963;82;21165;-46
2020/12/14 06:16:35;;;;;;;17.27;11.28;;;;;;;3.31;72.41;100748.45;1716556;82;21593;-45
2020/12/14 06:19:03;;;;;;;18.40;11.22;;;;;;;3.33;72.47;100751.06;1720983;82;21593;-44
2020/12/14 06:21:41;;;;;;;18.85;12.28;;;;;;;3.35;72.35;100750.55;1718900;82;21127;-45
2020/12/14 06:24:22;;;;;;;15.08;10.98;;;;;;;3.35;72.37;100753.19;1692697;82;21149;-44
2020/12/14 06:26:49;;;;;;;15.28;11.05;;;;;;;3.37;72.33;100759.30;1711193;82;21167;-41
2020/12/14 06:29:35;;;;;;;13.85;9.88;;;;;;;3.41;72.30;100762.28;1711185;82;21161;-44
2020/12/14 06:32:03;;;;;;;13.93;10.55;;;;;;;3.43;72.21;100763.12;1710440;82;21474;-45
2020/12/14 06:34:37;;;;;;;14.38;9.45;;;;;;;3.43;72.14;100767.08;1713329;82;21640;-49
2020/12/14 06:37:04;;;;;;;12.60;9.15;;;;;;;3.43;72.09;100765.30;1708334;82;21154;-42
2020/12/14 06:39:40;;;;;;;15.15;10.38;;;;;;;3.44;72.05;100764.84;1712813;82;21611;-44
2020/12/14 06:42:13;;;;;;;14.95;11.65;;;;;;;3.44;72.03;100762.20;1707180;82;21219;-43
2020/12/14 06:44:55;;;;;;;16.42;11.03;;;;;;;3.45;72.01;100765.23;1709514;82;21574;-44
2020/12/14 06:47:23;;;;;;;13.65;10.50;;;;;;;3.45;71.98;100761.28;1710479;82;21181;-43
2020/12/14 06:49:50;;;;;;;14.25;10.90;;;;;;;3.44;71.97;100756.92;1713466;82;21151;-46
2020/12/14 06:52:35;;;;;;;15.72;10.95;;;;;;;3.40;71.98;100758.79;1709370;82;21163;-45
2020/12/14 06:55:03;;;;;;;13.25;10.30;;;;;;;3.39;71.97;100757.49;1714670;82;21657;-44
2020/12/14 06:57:37;;;;;;;13.20;8.95;;;;;;;3.36;72.01;100751.84;1715787;82;21149;-43
2020/12/14 07:00:05;;;;;;;13.88;9.78;;;;;;;3.36;72.02;100749.66;1704403;82;21586;-43
2020/12/14 07:02:42;;;;;;;12.70;9.63;;;;;;;3.37;72.03;100748.75;1655405;84;21627;-45
2020/12/14 07:05:32;;;;;;;13.08;10.15;;;;;;;3.34;72.04;100748.83;1700864;82;21467;-45
2020/12/14 07:08:00;;;;;;;11.60;8.83;;;;;;;3.33;72.09;100755.02;1709616;82;21134;-46
2020/12/14 07:10:29;;;;;;;12.63;9.85;;;;;;;3.30;72.14;100753.75;1703987;82;21154;-45
2020/12/14 07:12:58;;;;;;;12.18;10.05;;;;;;;3.28;72.16;100757.76;1698480;82;21825;-45
2020/12/14 07:15:32;;;;;;;11.97;9.73;;;;;;;3.29;72.18;100758.63;1698761;82;21159;-44
2020/12/14 07:18:11;;;;;;;12.68;9.15;;;;;;;3.27;72.22;100753.38;1702773;82;21586;-45
2020/12/14 07:20:56;;;;;;;11.97;9.65;;;;;;;3.28;72.27;100750.31;1683146;82;21281;-44
2020/12/14 07:23:25;;;;;;;11.05;9.35;;;;;;;3.28;72.26;100752.48;1630612;86;21196;-43
2020/12/14 07:25:54;;;;;;;10.72;9.05;;;;;;;3.30;72.26;100759.02;1631384;86;21215;-44
2020/12/14 07:28:47;;;;;;;11.22;9.40;;;;;;;3.28;72.36;100759.08;1611943;87;21641;-44
2020/12/14 07:31:23;;;;;;;14.23;9.75;;;;;;;3.27;72.40;100759.97;1632755;86;21627;-44
2020/12/14 07:33:57;;;;;;;12.28;9.50;;;;;;;3.27;72.35;100763.91;1630867;86;21185;-43
2020/12/14 07:36:27;;;;;;;13.32;9.95;;;;;;;3.27;72.37;100770.51;1635314;86;21620;-43
2020/12/14 07:38:56;;;;;;;11.90;8.88;;;;;;;3.26;72.41;100767.47;1630965;86;21195;-44
2020/12/14 07:41:30;;;;;;;15.08;13.10;;;;;;;3.34;72.44;100776.52;1781993;78;28369;-43
2020/12/14 07:43:59;;;;;;;12.18;10.58;;;;;;;3.31;72.56;100782.72;1775801;79;21168;-45
2020/12/14 07:46:30;;;;;;;12.18;9.45;;;;;;;3.43;72.41;100785.53;1717644;81;21299;-43
2020/12/14 07:49:02;;;;;;;11.45;9.65;;;;;;;3.44;72.39;100788.57;1718234;82;21153;-45
2020/12/14 07:51:30;;;;;;;11.90;9.55;;;;;;;3.42;72.39;100788.59;1718548;82;21158;-44
2020/12/14 07:54:14;;;;;;;11.88;8.93;;;;;;;3.41;72.30;100792.61;1718491;82;21632;-44
2020/12/14 07:56:57;;;;;;;11.90;8.85;;;;;;;3.38;72.28;100800.59;1714107;82;21129;-44
2020/12/14 07:59:27;;;;;;;11.40;8.93;;;;;;;3.37;72.27;100807.61;1717968;82;21261;-44
2020/12/14 08:01:55;;;;;;;12.10;10.15;;;;;;;3.37;72.30;100804.97;1716289;82;21658;-44
2020/12/14 08:04:32;;;;;;;12.00;9.05;;;;;;;3.38;72.27;100810.68;1725306;81;21142;-44
2020/12/14 08:07:00;;;;;;;11.97;10.03;;;;;;;3.38;72.28;100805.87;1725609;81;21165;-42
2020/12/14 08:09:34;;;;;;;12.78;10.38;;;;;;;3.37;72.31;100798.84;1700223;82;21129;-43
2020/12/14 08:12:02;;;;;;;13.72;10.55;;;;;;;3.36;72.38;100798.44;1679404;82;21165;-43
2020/12/14 08:14:30;;;;;;;14.60;11.18;;;;;;;3.37;72.46;100793.56;1704546;82;21169;-44
2020/12/14 08:16:58;;;;;;;12.80;10.25;;;;;;;3.37;72.51;100790.93;1700417;82;22062;-41
2020/12/14 08:19:25;;;;;;;10.90;9.23;;;;;;;3.37;72.58;100789.61;1699863;82;21224;-44
2020/12/14 08:22:08;;;;;;;12.45;9.48;;;;;;;3.34;72.60;100783.97;1678767;83;21154;-44
2020/12/14 08:24:37;;;;;;;14.55;10.53;;;;;;;3.33;72.66;100786.20;1686649;83;21779;-44
2020/12/14 08:27:13;;;;;;;11.90;9.25;;;;;;;3.32;72.72;100792.81;1685133;83;21157;-45
2020/12/14 08:30:06;;;;;;;8.88;7.95;;;;;;;3.30;72.72;100787.59;1699576;82;21144;-44
2020/12/14 08:32:33;;;;;;;11.20;9.05;;;;;;;3.28;72.77;100783.27;1652232;85;21169;-45
2020/12/14 08:35:01;;;;;;;10.85;9.03;;;;;;;3.29;72.84;100778.39;1635779;86;21345;-44
2020/12/14 08:37:35;;;;;;;12.05;9.50;;;;;;;3.32;72.96;100773.90;1801502;78;23179;-44
2020/12/14 08:40:03;;;;;;;9.38;8.20;;;;;;;3.30;73.00;100778.80;1727520;81;21200;-44
2020/12/14 08:42:30;;;;;;;8.68;7.40;;;;;;;3.32;73.04;100782.27;1740383;81;21675;-44
2020/12/14 08:45:12;;;;;;;11.38;8.30;;;;;;;3.32;73.09;100777.85;1737678;81;22035;-44
2020/12/14 08:47:42;;;;;;;11.22;8.83;;;;;;;3.30;73.01;100770.45;1741029;81;21126;-44
2020/12/14 08:50:12;;;;;;;10.85;8.40;;;;;;;3.30;73.01;100777.48;1719427;82;21203;-44
2020/12/14 08:52:40;;;;;;;9.53;7.72;;;;;;;3.30;73.02;100775.73;1716990;82;21144;-44
2020/12/14 08:55:08;;;;;;;10.20;8.35;;;;;;;3.31;72.98;100777.45;1719682;82;22086;-44
2020/12/14 09:02:30;;;;;;;12.93;11.10;;;;;;;3.38;73.06;100780.82;1797235;77;22980;-44
2020/12/14 09:04:57;;;;;;;12.37;10.28;;;;;;;3.33;73.05;100787.97;1777751;79;21158;-44
2020/12/14 09:07:26;;;;;;;12.43;9.10;;;;;;;3.33;73.24;100791.92;1772690;80;21190;-44
2020/12/14 09:09:54;;;;;;;12.85;9.55;;;;;;;3.32;73.11;100791.03;1745256;80;21181;-44
2020/12/14 09:12:22;;;;;;;12.05;9.73;;;;;;;3.33;73.08;100790.61;1750120;81;21129;-44
2020/12/14 09:14:50;;;;;;;11.30;10.05;;;;;;;3.34;73.02;100790.55;1718077;80;21679;-44
2020/12/14 09:17:18;;;;;;;11.03;8.78;;;;;;;3.33;73.04;100779.61;1744328;81;21146;-44
2020/12/14 09:19:52;;;;;;;12.47;10.08;;;;;;;3.34;73.00;100776.05;1741776;81;22050;-45
2020/12/14 09:22:25;;;;;;;13.35;10.55;;;;;;;3.36;73.01;100772.08;1741144;81;21150;-44
2020/12/14 09:24:52;;;;;;;15.90;10.50;;;;;;;3.36;72.96;100775.57;1744437;81;21126;-44
2020/12/14 09:27:20;;;;;;;13.00;9.25;;;;;;;3.36;72.96;100769.44;1742869;80;21169;-44
2020/12/14 09:29:47;;;;;;;12.98;10.65;;;;;;;3.36;73.03;100767.66;1752862;81;21149;-43
2020/12/14 09:32:15;;;;;;;14.80;11.08;;;;;;;3.37;73.03;100770.70;1742692;80;21161;-50
2020/12/14 09:34:43;;;;;;;15.03;12.13;;;;;;;3.37;73.00;100772.48;1739533;80;21161;-46
2020/12/14 09:37:11;;;;;;;17.10;12.00;;;;;;;3.35;72.89;100769.90;1748039;80;21184;-45
2020/12/14 09:39:39;;;;;;;12.75;10.25;;;;;;;3.33;72.97;100770.84;1740859;80;21157;-46
2020/12/14 09:42:07;;;;;;;16.57;12.03;;;;;;;3.34;72.93;100775.19;1747397;81;21168;-46
2020/12/14 09:44:35;;;;;;;15.55;12.65;;;;;;;3.33;72.88;100776.97;1746842;81;21739;-47
2020/12/14 09:47:04;;;;;;;15.35;11.97;;;;;;;3.33;72.92;100774.80;1742589;80;21133;-46
2020/12/14 09:49:32;;;;;;;14.78;11.78;;;;;;;3.33;72.86;100779.61;1744557;80;21570;-47
2020/12/14 09:52:00;;;;;;;17.00;12.47;;;;;;;3.34;72.94;100776.52;1742173;80;21129;-48
2020/12/14 09:54:28;;;;;;;14.18;10.85;;;;;;;3.36;72.97;100783.94;1742346;80;21177;-48
2020/12/14 09:56:56;;;;;;;12.73;10.53;;;;;;;3.38;72.88;100780.36;1743395;80;21146;-46
2020/12/14 10:13:43;;;;;;;13.22;9.30;;;;;;;3.24;73.01;100784.62;1795784;78;23314;-45
2020/12/14 10:16:14;;;;;;;16.97;12.75;;;;;;;3.17;72.98;100787.45;1770827;79;21568;-44
2020/12/14 10:18:42;;;;;;;22.77;14.75;;;;;;;3.16;72.99;100783.09;1720676;81;22022;-44
2020/12/14 10:21:09;;;;;;;18.60;14.65;;;;;;;3.15;73.04;100786.61;1743506;81;21177;-44
2020/12/14 10:23:37;;;;;;;16.60;12.33;;;;;;;3.14;73.12;100779.16;1728439;81;21433;-44
2020/12/14 10:26:05;;;;;;;15.53;11.88;;;;;;;3.15;73.16;100773.42;1726782;81;21180;-45
2020/12/14 10:28:33;;;;;;;16.67;12.33;;;;;;;3.18;73.20;100782.61;1719482;82;21409;-43
2020/12/14 10:31:01;;;;;;;18.77;13.72;;;;;;;3.20;73.27;100786.94;1722964;82;21151;-45
2020/12/14 10:33:30;;;;;;;16.20;12.58;;;;;;;3.22;73.28;100784.25;1720649;82;21153;-43
2020/12/14 10:36:09;;;;;;;16.02;12.55;;;;;;;3.25;73.22;100773.20;1715326;82;21163;-43
2020/12/14 10:38:37;;;;;;;17.05;12.05;;;;;;;3.29;73.17;100775.30;1717258;81;21145;-42
2020/12/14 10:41:05;;;;;;;14.38;11.25;;;;;;;3.31;73.22;100774.81;1742641;80;21138;-42
2020/12/14 10:43:32;;;;;;;14.40;11.25;;;;;;;3.33;73.11;100776.11;1736588;81;21138;-43
2020/12/14 10:46:00;;;;;;;18.17;11.28;;;;;;;3.32;73.02;100782.27;1745887;81;21149;-42
2020/12/14 10:48:28;;;;;;;15.70;13.83;;;;;;;3.32;73.04;100783.13;1741721;81;21153;-42
2020/12/14 10:50:56;;;;;;;15.75;11.15;;;;;;;3.35;73.04;100776.91;1714495;81;21143;-43
2020/12/14 10:53:24;;;;;;;14.28;10.65;;;;;;;3.36;72.94;100776.03;1715513;82;21551;-44
2020/12/14 15:45:17;;;;;;;14.03;10.35;;;;;;;3.07;73.32;100904.52;1775029;77;957833;-50
2020/12/14 15:47:45;;;;;;;15.78;12.20;;;;;;;3.00;73.41;100900.70;1790014;78;21096;-46
2020/12/14 15:50:12;;;;;;;17.27;12.93;;;;;;;2.97;73.52;100904.72;1790821;79;21161;-40
2020/12/14 15:52:47;;;;;;;18.55;13.08;;;;;;;2.97;73.65;100899.88;1792151;78;21156;-42
2020/12/14 15:55:10;;;;;;;15.78;12.45;;;;;;;2.96;73.66;100904.74;1795125;78;21116;-42
2020/12/14 15:57:37;;;;;;;14.53;10.95;;;;;;;2.91;73.73;100902.19;1735809;81;21194;-40
2020/12/14 16:00:05;;;;;;;14.70;11.38;;;;;;;2.88;73.85;100904.03;1785073;78;21163;-40
2020/12/14 16:02:34;;;;;;;15.32;11.48;;;;;;;2.86;74.08;100911.95;1776811;78;21120;-41
2020/12/14 16:05:03;;;;;;;16.17;12.47;;;;;;;2.91;74.16;100918.00;1775545;78;21296;-40
2020/12/14 16:07:30;;;;;;;18.23;13.03;;;;;;;2.98;74.11;100914.34;1788666;78;21137;-42
2020/12/14 16:09:58;;;;;;;17.70;12.43;;;;;;;3.00;73.98;100921.78;1792270;78;21142;-41
2020/12/14 16:12:25;;;;;;;16.57;12.37;;;;;;;2.97;74.02;100927.12;1779250;79;21161;-41
2020/12/14 16:14:53;;;;;;;15.95;12.25;;;;;;;2.96;74.02;100928.45;1735529;81;21173;-40
2020/12/14 16:17:23;;;;;;;20.30;13.00;;;;;;;2.94;74.08;100934.20;1734455;81;21152;-41
2020/12/14 16:19:50;;;;;;;17.23;12.53;;;;;;;2.91;74.14;100936.90;1791736;78;21149;-42
2020/12/14 16:22:18;;;;;;;17.27;13.55;;;;;;;2.85;74.23;100936.58;1782969;78;21547;-41
2020/12/14 16:24:45;;;;;;;17.55;12.93;;;;;;;2.82;74.25;100939.25;1754725;80;21653;-40
2020/12/14 16:27:13;;;;;;;15.75;11.18;;;;;;;2.81;74.36;100933.11;1778948;78;21153;-40
2020/12/14 16:29:40;;;;;;;20.20;15.85;;;;;;;2.86;74.43;100938.75;1722923;82;21148;-40
2020/12/14 16:32:08;;;;;;;17.67;13.50;;;;;;;2.90;74.44;100941.73;1762656;80;21152;-40
2020/12/14 16:34:36;;;;;;;19.27;14.58;;;;;;;2.91;74.36;100942.17;1753853;80;21125;-42
2020/12/14 16:37:04;;;;;;;16.70;13.35;;;;;;;2.87;74.43;100941.80;1777857;79;21123;-42
2020/12/14 16:39:31;;;;;;;15.63;12.25;;;;;;;2.86;74.50;100936.98;1790071;78;21161;-39